ADDS METAR Data INFO
IDs: Format: Raw Decoded Include TAF

Data at: 0105 UTC 21 Oct 2017

KOMN 202250Z 06008G16KT 10SM SKC 25/17 A3011 RMK LAST
KOMN 202150Z 06010KT 10SM SCT040 27/17 A3011
KOMN 202050Z 07010G15KT 10SM SCT040 27/17 A3011
KOMN 201950Z 06010G16KT 10SM SCT040 28/17 A3011
KOMN 201850Z 06011G18KT 10SM SCT040 28/18 A3011
KOMN 201750Z 08010G17KT 10SM SCT040 28/18 A3014
KOMN 201650Z 08010G17KT 7SM SCT030 28/20 A3016
KOMN 201550Z 06010G17KT 7SM SCT050 28/18 A3017
KOMN 201450Z 06010G17KT 7SM SCT040 27/17 A3017
KOMN 201350Z 06010G15KT 7SM SCT040 27/18 A3016
KOMN 201250Z 06010KT 7SM SCT030 25/18 A3016
KOMN 201150Z 06010KT 7SM SCT030 24/19 A3013
KOMN 201050Z 05006KT 7SM BKN032 24/21 A3013 RMK FIRST
KOMN 192250Z 03010KT 7SM SCT017 SCT040 24/22 A3010 RMK LAST
KOMN 192150Z 02010G15KT 7SM SCT026 25/21 A3010
KOMN 192050Z 01015G21KT 7SM SCT016 25/22 A3010
KOMN 191950Z 01015G21KT 7SM SCT020 BKN033 27/22 A3010
KOMN 191850Z 05010G17KT 7SM SCT028 28/22 A3009
KOMN 191750Z 06010G17KT 7SM SCT028 28/22 A3011
KOMN 191650Z 06010G17KT 7SM SCT028 28/22 A3013
KOMN 191550Z 06012G17KT 7SM VCSH SCT031 27/22 A3013
KOMN 191450Z 00000KT 7SM VCSH SCT031 BKN050 25/22 A3013
KOMN 191350Z 00000KT 7SM VCSH SCT025 BKN032 24/22 A3012